Time,TemperatureF,DewpointF,PressureIn,WindDirection,WindDirectionDegrees,WindSpeedMPH,WindSpeedGustMPH,Humidity,HourlyPrecipIn,Conditions,Clouds,dailyrainin,SoftwareType,DateUTC
2013-04-05 00:09:00,57.7,51.6,30.14,WNW,300,0.0,0.0,80,0.00,,,-99.99,Weather View 32 v60,2013-04-05 07:09:00,
2013-04-05 00:19:00,57.7,51.6,30.14,West,270,0.0,0.0,80,0.00,,,-99.99,Weather View 32 v60,2013-04-05 07:19:00,
2013-04-05 00:29:00,57.7,51.9,30.14,WSW,258,0.0,0.0,81,0.00,,,-99.99,Weather View 32 v60,2013-04-05 07:29:00,
2013-04-05 00:39:00,57.7,51.9,30.14,WSW,255,0.0,0.0,81,0.00,,,-99.99,Weather View 32 v60,2013-04-05 07:39:00,
2013-04-05 00:49:00,57.7,51.9,30.14,North,351,0.0,0.0,81,0.00,,,-99.99,Weather View 32 v60,2013-04-05 07:49:00,
2013-04-05 00:59:00,57.6,51.8,30.14,WNW,286,0.0,0.0,81,0.00,,,-99.99,Weather View 32 v60,2013-04-05 07:59:00,
2013-04-05 01:09:00,57.4,51.9,30.14,NW,321,0.0,0.0,82,0.00,,,-99.99,Weather View 32 v60,2013-04-05 08:09:00,
2013-04-05 01:19:00,57.2,51.7,30.14,West,271,0.0,0.0,82,0.00,,,-99.99,Weather View 32 v60,2013-04-05 08:19:00,
2013-04-05 01:29:00,57.2,51.4,30.14,SW,223,0.0,0.0,81,0.00,,,-99.99,Weather View 32 v60,2013-04-05 08:29:00,
2013-04-05 01:39:00,57.2,50.7,30.14,West,261,0.0,0.0,79,0.00,,,-99.99,Weather View 32 v60,2013-04-05 08:39:00,
2013-04-05 01:49:00,57.2,50.0,30.14,SW,219,0.0,0.0,77,0.00,,,-99.99,Weather View 32 v60,2013-04-05 08:49:00,
2013-04-05 02:09:00,57.2,49.0,30.14,SSW,208,0.0,0.0,74,0.00,,,-99.99,Weather View 32 v60,2013-04-05 09:09:00,
2013-04-05 02:20:00,57.2,49.0,30.14,WSW,257,0.0,0.0,74,0.00,,,-99.99,Weather View 32 v60,2013-04-05 09:20:00,
2013-04-05 02:29:00,57.2,49.0,30.14,WNW,289,0.0,0.0,74,0.00,,,-99.99,Weather View 32 v60,2013-04-05 09:29:00,
2013-04-05 02:40:00,57.0,48.8,30.14,WSW,254,0.0,0.0,74,0.00,,,-99.99,Weather View 32 v60,2013-04-05 09:40:00,
2013-04-05 02:49:00,57.0,48.8,30.14,WSW,258,0.0,0.0,74,0.00,,,-99.99,Weather View 32 v60,2013-04-05 09:49:00,
2013-04-05 02:59:00,57.0,48.8,30.14,West,260,0.0,0.0,74,0.00,,,-99.99,Weather View 32 v60,2013-04-05 09:59:00,
2013-04-05 03:09:00,56.8,48.6,30.14,SW,230,0.0,0.0,74,0.00,,,-99.99,Weather View 32 v60,2013-04-05 10:09:00,
2013-04-05 03:19:00,56.7,48.8,30.14,WNW,303,0.0,0.0,75,0.00,,,-99.99,Weather View 32 v60,2013-04-05 10:19:00,
2013-04-05 03:29:00,56.8,49.3,30.14,West,272,0.0,0.0,76,0.00,,,-99.99,Weather View 32 v60,2013-04-05 10:29:00,
2013-04-05 03:39:00,56.8,49.7,30.14,West,259,0.0,0.0,77,0.00,,,-99.99,Weather View 32 v60,2013-04-05 10:39:00,
2013-04-05 03:49:00,56.8,49.7,30.14,WSW,258,0.0,0.0,77,0.00,,,-99.99,Weather View 32 v60,2013-04-05 10:49:00,
2013-04-05 03:59:00,56.7,49.9,30.14,WSW,258,0.0,0.0,78,0.00,,,-99.99,Weather View 32 v60,2013-04-05 10:59:00,
2013-04-05 04:09:00,56.7,49.9,30.14,West,266,0.0,0.0,78,0.00,,,-99.99,Weather View 32 v60,2013-04-05 11:09:00,
2013-04-05 04:19:00,56.5,49.7,30.14,WSW,255,0.0,0.0,78,0.00,,,-99.99,Weather View 32 v60,2013-04-05 11:19:00,
2013-04-05 04:29:00,56.3,49.9,30.14,SW,221,0.0,0.0,79,0.00,,,-99.99,Weather View 32 v60,2013-04-05 11:29:00,
2013-04-05 04:39:00,56.1,50.0,30.14,SW,221,0.0,0.0,80,0.00,,,-99.99,Weather View 32 v60,2013-04-05 11:39:00,
2013-04-05 04:49:00,55.9,49.8,30.14,SW,221,0.0,0.0,80,0.00,,,-99.99,Weather View 32 v60,2013-04-05 11:49:00,
2013-04-05 04:59:00,55.9,49.8,30.14,SW,214,0.0,0.0,80,0.00,,,-99.99,Weather View 32 v60,2013-04-05 11:59:00,
2013-04-05 05:09:00,55.9,49.8,30.14,SW,214,0.0,0.0,80,0.00,,,-99.99,Weather View 32 v60,2013-04-05 12:09:00,
2013-04-05 05:19:00,55.9,49.8,30.14,SW,214,0.0,0.0,80,0.00,,,-99.99,Weather View 32 v60,2013-04-05 12:19:00,
2013-04-05 05:29:00,55.8,49.7,30.14,SW,214,0.0,0.0,80,0.00,,,-99.99,Weather View 32 v60,2013-04-05 12:29:00,
2013-04-05 05:39:00,55.8,49.7,30.14,SW,214,0.0,0.0,80,0.00,,,-99.99,Weather View 32 v60,2013-04-05 12:39:00,
2013-04-05 05:49:00,55.4,49.0,30.14,SW,214,0.0,0.0,79,0.00,,,-99.99,Weather View 32 v60,2013-04-05 12:49:00,
2013-04-05 05:59:00,55.0,48.6,30.14,WNW,289,0.0,0.0,79,0.00,,,-99.99,Weather View 32 v60,2013-04-05 12:59:00,
2013-04-05 06:10:00,54.5,48.4,30.14,WNW,289,0.0,0.0,80,0.00,,,-99.99,Weather View 32 v60,2013-04-05 13:10:00,
2013-04-05 06:20:00,54.3,48.6,30.14,WSW,253,0.0,0.0,81,0.00,,,-99.99,Weather View 32 v60,2013-04-05 13:20:00,
2013-04-05 06:30:00,54.3,48.6,30.14,WSW,253,0.0,0.0,81,0.00,,,-99.99,Weather View 32 v60,2013-04-05 13:30:00,
2013-04-05 06:49:00,54.7,49.3,30.14,SW,232,0.0,0.0,82,0.00,,,-99.99,Weather View 32 v60,2013-04-05 13:49:00,
2013-04-05 06:59:00,55.0,49.6,30.14,SW,218,0.0,0.0,82,0.00,,,-99.99,Weather View 32 v60,2013-04-05 13:59:00,
2013-04-05 07:09:00,55.6,49.8,30.14,WSW,246,0.0,0.0,81,0.00,,,-99.99,Weather View 32 v60,2013-04-05 14:09:00,
2013-04-05 07:19:00,55.4,49.7,30.14,West,273,0.0,0.0,81,0.00,,,-99.99,Weather View 32 v60,2013-04-05 14:19:00,
2013-04-05 07:25:00,55.4,49.7,30.14,West,273,0.0,0.0,81,0.00,,,-99.99,Weather View 32 v60,2013-04-05 14:25:00,
2013-04-05 07:49:00,56.8,50.7,30.17,NW,310,0.0,0.0,80,0.00,,,-99.99,Weather View 32 v60,2013-04-05 14:49:00,
2013-04-05 07:59:00,57.2,50.7,30.17,NNW,328,0.0,0.0,79,0.00,,,-99.99,Weather View 32 v60,2013-04-05 14:59:00,
2013-04-05 08:09:00,57.4,50.2,30.17,ENE,75,0.0,0.0,77,0.00,,,-99.99,Weather View 32 v60,2013-04-05 15:09:00,
2013-04-05 08:25:00,57.7,50.2,30.17,East,90,0.0,0.0,76,0.00,,,-99.99,Weather View 32 v60,2013-04-05 15:25:00,
2013-04-05 08:39:00,59.0,49.6,30.17,ENE,73,0.0,0.0,71,0.00,,,-99.99,Weather View 32 v60,2013-04-05 15:39:00,
2013-04-05 08:49:00,59.7,50.3,30.17,SW,235,0.0,0.0,71,0.00,,,-99.99,Weather View 32 v60,2013-04-05 15:49:00,
2013-04-05 08:59:00,59.9,49.7,30.17,SW,232,0.0,0.0,69,0.00,,,-99.99,Weather View 32 v60,2013-04-05 15:59:00,
2013-04-05 09:10:00,59.2,50.5,30.17,WSW,242,0.0,0.0,73,0.00,,,-99.99,Weather View 32 v60,2013-04-05 16:10:00,
2013-04-05 09:19:00,58.8,51.6,30.17,NNE,17,0.0,3.0,77,0.00,,,-99.99,Weather View 32 v60,2013-04-05 16:19:00,
2013-04-05 09:26:00,58.8,51.6,30.17,NNE,17,0.0,3.0,77,0.00,,,-99.99,Weather View 32 v60,2013-04-05 16:26:00,
2013-04-05 09:39:00,60.3,53.4,30.17,WSW,246,0.0,3.0,78,0.00,,,-99.99,Weather View 32 v60,2013-04-05 16:39:00,
2013-04-05 09:49:00,60.3,51.5,30.17,WSW,241,0.0,3.0,73,0.00,,,-99.99,Weather View 32 v60,2013-04-05 16:49:00,
2013-04-05 09:59:00,61.0,51.5,30.17,WNW,282,0.0,3.0,71,0.00,,,-99.99,Weather View 32 v60,2013-04-05 16:59:00,
2013-04-05 10:09:00,61.9,51.2,30.17,West,269,0.0,3.0,68,0.00,,,-99.99,Weather View 32 v60,2013-04-05 17:09:00,
2013-04-05 10:19:00,61.9,49.5,30.17,WSW,237,0.0,4.0,64,0.00,,,-99.99,Weather View 32 v60,2013-04-05 17:19:00,
2013-04-05 10:29:00,62.6,49.8,30.17,SW,236,0.0,5.0,63,0.00,,,-99.99,Weather View 32 v60,2013-04-05 17:29:00,
2013-04-05 10:39:00,63.0,48.4,30.17,SSW,213,0.0,7.0,59,0.00,,,-99.99,Weather View 32 v60,2013-04-05 17:39:00,
2013-04-05 10:49:00,64.2,47.7,30.20,NW,310,0.0,7.0,55,0.00,,,-99.99,Weather View 32 v60,2013-04-05 17:49:00,
2013-04-05 10:59:00,64.6,47.0,30.20,WSW,244,0.0,7.0,53,0.00,,,-99.99,Weather View 32 v60,2013-04-05 17:59:00,
2013-04-05 11:09:00,65.1,46.5,30.20,West,270,0.0,7.0,51,0.00,,,-99.99,Weather View 32 v60,2013-04-05 18:09:00,
2013-04-05 11:19:00,65.8,46.6,30.20,West,262,0.0,7.0,50,0.00,,,-99.99,Weather View 32 v60,2013-04-05 18:19:00,
2013-04-05 11:27:00,65.8,46.6,30.20,West,262,0.0,7.0,50,0.00,,,-99.99,Weather View 32 v60,2013-04-05 18:27:00,
2013-04-05 11:39:00,66.0,46.3,30.20,West,271,0.0,5.0,49,0.00,,,-99.99,Weather View 32 v60,2013-04-05 18:39:00,
2013-04-05 11:50:00,66.6,46.2,30.20,SW,214,0.0,5.0,48,0.00,,,-99.99,Weather View 32 v60,2013-04-05 18:50:00,
2013-04-05 11:59:00,67.5,45.3,30.20,SW,215,3.0,9.0,45,0.00,,,-99.99,Weather View 32 v60,2013-04-05 18:59:00,
2013-04-05 12:09:00,68.0,45.8,30.20,WSW,248,4.0,9.0,45,0.00,,,-99.99,Weather View 32 v60,2013-04-05 19:09:00,
2013-04-05 12:19:00,67.5,45.3,30.20,West,276,4.0,9.0,45,0.00,,,-99.99,Weather View 32 v60,2013-04-05 19:19:00,
2013-04-05 12:27:00,67.5,45.3,30.20,West,276,4.0,9.0,45,0.00,,,-99.99,Weather View 32 v60,2013-04-05 19:27:00,
2013-04-05 12:40:00,68.0,45.2,30.20,SSW,209,4.0,10.0,44,0.00,,,-99.99,Weather View 32 v60,2013-04-05 19:40:00,
2013-04-05 12:59:00,68.5,44.5,30.20,NNW,328,4.0,10.0,42,0.00,,,-99.99,Weather View 32 v60,2013-04-05 19:59:00,
2013-04-05 13:09:00,67.6,44.3,30.20,WSW,242,4.0,10.0,43,0.00,,,-99.99,Weather View 32 v60,2013-04-05 20:09:00,
2013-04-05 13:19:00,67.8,44.4,30.20,NW,325,0.0,10.0,43,0.00,,,-99.99,Weather View 32 v60,2013-04-05 20:19:00,
2013-04-05 13:28:00,67.8,44.4,30.20,NW,325,0.0,10.0,43,0.00,,,-99.99,Weather View 32 v60,2013-04-05 20:28:00,
2013-04-05 13:39:00,68.0,45.8,30.17,SW,234,3.0,9.0,45,0.00,,,-99.99,Weather View 32 v60,2013-04-05 20:39:00,
2013-04-05 13:49:00,70.3,46.1,30.17,WSW,257,0.0,10.0,42,0.00,,,-99.99,Weather View 32 v60,2013-04-05 20:49:00,
2013-04-05 13:59:00,71.4,46.4,30.17,NW,319,0.0,10.0,41,0.00,,,-99.99,Weather View 32 v60,2013-04-05 20:59:00,
2013-04-05 14:09:00,70.9,45.3,30.17,SSW,207,3.0,10.0,40,0.00,,,-99.99,Weather View 32 v60,2013-04-05 21:09:00,
2013-04-05 14:19:00,70.5,45.6,30.17,SW,217,0.0,10.0,41,0.00,,,-99.99,Weather View 32 v60,2013-04-05 21:19:00,
2013-04-05 14:29:00,70.9,45.3,30.17,WSW,237,0.0,10.0,40,0.00,,,-99.99,Weather View 32 v60,2013-04-05 21:29:00,
2013-04-05 14:39:00,70.7,44.5,30.17,WNW,295,0.0,10.0,39,0.00,,,-99.99,Weather View 32 v60,2013-04-05 21:39:00,
2013-04-05 14:49:00,70.7,43.8,30.17,SW,225,5.0,10.0,38,0.00,,,-99.99,Weather View 32 v60,2013-04-05 21:49:00,
2013-04-05 14:59:00,70.2,43.3,30.17,SSW,203,0.0,10.0,38,0.00,,,-99.99,Weather View 32 v60,2013-04-05 21:59:00,
2013-04-05 15:09:00,69.4,45.3,30.17,North,351,0.0,10.0,42,0.00,,,-99.99,Weather View 32 v60,2013-04-05 22:09:00,
2013-04-05 15:19:00,68.4,44.9,30.17,NNW,339,0.0,10.0,43,0.00,,,-99.99,Weather View 32 v60,2013-04-05 22:19:00,
2013-04-05 15:29:00,68.4,44.9,30.17,NNW,339,0.0,10.0,43,0.00,,,-99.99,Weather View 32 v60,2013-04-05 22:29:00,
2013-04-05 15:39:00,69.4,44.7,30.14,NW,321,0.0,10.0,41,0.00,,,-99.99,Weather View 32 v60,2013-04-05 22:39:00,
2013-04-05 15:49:00,69.8,44.3,30.14,WSW,253,6.0,10.0,40,0.00,,,-99.99,Weather View 32 v60,2013-04-05 22:49:00,
2013-04-05 15:59:00,69.8,43.7,30.14,WSW,238,0.0,10.0,39,0.00,,,-99.99,Weather View 32 v60,2013-04-05 22:59:00,
2013-04-05 16:09:00,70.3,44.1,30.14,NNW,330,0.0,10.0,39,0.00,,,-99.99,Weather View 32 v60,2013-04-05 23:09:00,
2013-04-05 16:19:00,69.4,44.7,30.17,WSW,257,0.0,10.0,41,0.00,,,-99.99,Weather View 32 v60,2013-04-05 23:19:00,
2013-04-05 16:30:00,69.8,45.0,30.17,SSW,199,4.0,10.0,41,0.00,,,-99.99,Weather View 32 v60,2013-04-05 23:30:00,
2013-04-05 16:39:00,68.5,44.5,30.14,SW,221,0.0,10.0,42,0.00,,,-99.99,Weather View 32 v60,2013-04-05 23:39:00,
2013-04-05 16:49:00,69.3,45.1,30.14,West,266,0.0,10.0,42,0.00,,,-99.99,Weather View 32 v60,2013-04-05 23:49:00,
2013-04-05 16:59:00,68.9,44.8,30.14,SSW,209,0.0,9.0,42,0.00,,,-99.99,Weather View 32 v60,2013-04-05 23:59:00,
2013-04-05 17:09:00,68.0,44.6,30.14,West,277,0.0,9.0,43,0.00,,,-99.99,Weather View 32 v60,2013-04-06 00:09:00,
2013-04-05 17:19:00,67.5,45.3,30.14,SW,219,3.0,10.0,45,0.00,,,-99.99,Weather View 32 v60,2013-04-06 00:19:00,
2013-04-05 17:29:00,66.6,44.5,30.14,NNE,24,0.0,10.0,45,0.00,,,-99.99,Weather View 32 v60,2013-04-06 00:29:00,
2013-04-05 17:39:00,65.8,45.0,30.14,SSW,195,0.0,10.0,47,0.00,,,-99.99,Weather View 32 v60,2013-04-06 00:39:00,
2013-04-05 17:49:00,65.5,44.1,30.14,West,265,6.0,10.0,46,0.00,,,-99.99,Weather View 32 v60,2013-04-06 00:49:00,
2013-04-05 17:59:00,64.9,44.2,30.14,West,275,0.0,10.0,47,0.00,,,-99.99,Weather View 32 v60,2013-04-06 00:59:00,
2013-04-05 18:10:00,64.0,43.9,30.14,SW,218,0.0,10.0,48,0.00,,,-99.99,Weather View 32 v60,2013-04-06 01:10:00,
2013-04-05 18:19:00,63.3,45.3,30.14,WSW,241,0.0,10.0,52,0.00,,,-99.99,Weather View 32 v60,2013-04-06 01:19:00,
2013-04-05 18:30:00,62.4,45.0,30.14,SW,231,0.0,10.0,53,0.00,,,-99.99,Weather View 32 v60,2013-04-06 01:30:00,
2013-04-05 18:39:00,61.5,45.6,30.14,South,177,0.0,10.0,56,0.00,,,-99.99,Weather View 32 v60,2013-04-06 01:39:00,
2013-04-05 18:49:00,61.0,46.1,30.17,NNW,341,0.0,11.0,58,0.00,,,-99.99,Weather View 32 v60,2013-04-06 01:49:00,
2013-04-05 18:59:00,60.4,46.5,30.17,SW,214,7.0,12.0,60,0.00,,,-99.99,Weather View 32 v60,2013-04-06 01:59:00,
2013-04-05 19:09:00,60.1,47.0,30.14,WSW,245,5.0,12.0,62,0.00,,,-99.99,Weather View 32 v60,2013-04-06 02:09:00,
2013-04-05 19:19:00,59.5,46.9,30.14,SW,222,0.0,12.0,63,0.00,,,-99.99,Weather View 32 v60,2013-04-06 02:19:00,
2013-04-05 19:29:00,58.8,46.6,30.14,SW,231,0.0,12.0,64,0.00,,,-99.99,Weather View 32 v60,2013-04-06 02:29:00,
2013-04-05 19:40:00,58.3,46.9,30.14,WSW,247,0.0,12.0,66,0.00,,,-99.99,Weather View 32 v60,2013-04-06 02:40:00,
2013-04-05 19:49:00,57.9,47.8,30.14,SW,221,0.0,12.0,69,0.00,,,-99.99,Weather View 32 v60,2013-04-06 02:49:00,
2013-04-05 19:59:00,57.4,47.7,30.14,West,280,0.0,10.0,70,0.00,,,-99.99,Weather View 32 v60,2013-04-06 02:59:00,
2013-04-05 20:09:00,57.0,47.3,30.14,NNW,337,0.0,10.0,70,0.00,,,-99.99,Weather View 32 v60,2013-04-06 03:09:00,
2013-04-05 20:19:00,56.7,47.3,30.14,NE,50,0.0,5.0,71,0.00,,,-99.99,Weather View 32 v60,2013-04-06 03:19:00,
2013-04-05 20:29:00,56.5,47.5,30.14,WNW,298,0.0,5.0,72,0.00,,,-99.99,Weather View 32 v60,2013-04-06 03:29:00,
2013-04-05 20:39:00,56.1,47.6,30.17,SW,236,0.0,4.0,73,0.00,,,-99.99,Weather View 32 v60,2013-04-06 03:39:00,
2013-04-05 20:49:00,55.9,47.8,30.17,WSW,255,0.0,6.0,74,0.00,,,-99.99,Weather View 32 v60,2013-04-06 03:49:00,
2013-04-05 20:59:00,55.8,47.9,30.17,SW,232,0.0,6.0,75,0.00,,,-99.99,Weather View 32 v60,2013-04-06 03:59:00,
2013-04-05 21:09:00,55.8,47.6,30.17,West,270,0.0,10.0,74,0.00,,,-99.99,Weather View 32 v60,2013-04-06 04:09:00,
2013-04-05 21:19:00,55.8,47.6,30.17,SW,224,0.0,10.0,74,0.00,,,-99.99,Weather View 32 v60,2013-04-06 04:19:00,
2013-04-05 21:29:00,55.6,47.4,30.17,SW,229,0.0,10.0,74,0.00,,,-99.99,Weather View 32 v60,2013-04-06 04:29:00,
2013-04-05 21:39:00,55.6,47.8,30.20,WSW,256,3.0,10.0,75,0.00,,,-99.99,Weather View 32 v60,2013-04-06 04:39:00,
2013-04-05 21:49:00,55.9,48.1,30.20,WSW,242,0.0,10.0,75,0.00,,,-99.99,Weather View 32 v60,2013-04-06 04:49:00,
2013-04-05 21:59:00,56.1,48.3,30.20,WSW,249,0.0,10.0,75,0.00,,,-99.99,Weather View 32 v60,2013-04-06 04:59:00,
2013-04-05 22:19:00,55.9,48.5,30.20,North,1,0.0,7.0,76,0.00,,,-99.99,Weather View 32 v60,2013-04-06 05:19:00,
2013-04-05 22:29:00,55.8,48.6,30.20,SW,235,0.0,7.0,77,0.00,,,-99.99,Weather View 32 v60,2013-04-06 05:29:00,
2013-04-05 22:39:00,55.2,48.1,30.20,NNW,345,0.0,7.0,77,0.00,,,-99.99,Weather View 32 v60,2013-04-06 05:39:00,
2013-04-05 22:49:00,54.9,48.8,30.20,West,279,0.0,7.0,80,0.00,,,-99.99,Weather View 32 v60,2013-04-06 05:49:00,
2013-04-05 22:59:00,54.5,48.4,30.20,SSW,206,0.0,7.0,80,0.00,,,-99.99,Weather View 32 v60,2013-04-06 05:59:00,
2013-04-05 23:09:00,54.1,48.1,30.20,SW,215,0.0,6.0,80,0.00,,,-99.99,Weather View 32 v60,2013-04-06 06:09:00,
2013-04-05 23:19:00,54.1,48.1,30.20,SW,217,0.0,6.0,80,0.00,,,-99.99,Weather View 32 v60,2013-04-06 06:19:00,
2013-04-05 23:30:00,54.1,48.8,30.20,ENE,65,0.0,6.0,82,0.00,,,-99.99,Weather View 32 v60,2013-04-06 06:30:00,
2013-04-05 23:39:00,54.3,48.9,30.20,NNW,342,0.0,6.0,82,0.00,,,-99.99,Weather View 32 v60,2013-04-06 06:39:00,
2013-04-05 23:49:00,54.5,49.1,30.20,NNW,342,0.0,0.0,82,0.00,,,-99.99,Weather View 32 v60,2013-04-06 06:49:00,
2013-04-05 23:59:00,54.7,49.3,30.20,North,356,0.0,0.0,82,0.00,,,-99.99,Weather View 32 v60,2013-04-06 06:59:00,